Time;durP1;ratioP1;P1;durP2;ratioP2;P2;SDS_P1;SDS_P2;PMS_P1;PMS_P2;Temp;Humidity;BMP_temperature;BMP_pressure;BME280_temperature;BME280_humidity;BME280_pressure;Samples;Min_cycle;Max_cycle;Signal;HPM_P1;HPM_P2
2023/01/10 00:00:13;;;;;;;1.88;1.50;;;16.50;59.20;;;;;;5061020;28;20024;-68
2023/01/10 00:02:38;;;;;;;2.67;1.77;;;16.50;60.00;;;;;;5061032;28;20340;-70
2023/01/10 00:05:05;;;;;;;4.15;1.60;;;16.50;59.50;;;;;;5061091;28;20096;-69
2023/01/10 00:07:31;;;;;;;2.97;1.60;;;16.50;59.60;;;;;;5061036;28;20056;-68
2023/01/10 00:09:57;;;;;;;1.98;1.33;;;16.50;59.60;;;;;;5060986;28;20029;-69
2023/01/10 00:15:07;;;;;;;1.88;1.58;;;16.60;59.60;;;;;;5060999;28;20028;-68
2023/01/10 00:17:33;;;;;;;1.63;1.50;;;16.60;59.50;;;;;;5060987;28;20090;-68
2023/01/10 00:19:58;;;;;;;1.52;1.35;;;16.60;59.50;;;;;;5060919;28;20033;-68
2023/01/10 00:22:24;;;;;;;1.90;1.42;;;16.60;59.40;;;;;;5060917;28;20021;-70
2023/01/10 00:24:51;;;;;;;2.33;1.77;;;16.70;59.50;;;;;;5060882;28;20029;-69
2023/01/10 00:27:21;;;;;;;1.73;1.63;;;16.60;59.40;;;;;;5060845;28;20300;-69
2023/01/10 00:29:50;;;;;;;1.35;1.25;;;16.70;59.50;;;;;;5060711;28;20052;-68
2023/01/10 00:32:16;;;;;;;2.17;1.20;;;16.70;59.50;;;;;;5064807;28;20025;-68
2023/01/10 00:34:41;;;;;;;1.40;1.30;;;16.60;59.40;;;;;;5064823;28;20055;-68
2023/01/10 00:37:07;;;;;;;1.80;1.30;;;16.60;59.50;;;;;;5064756;28;20021;-68
2023/01/10 00:39:33;;;;;;;2.88;1.63;;;16.60;59.40;;;;;;5064637;28;20021;-68
2023/01/10 00:44:45;;;;;;;1.55;1.35;;;16.60;59.50;;;;;;5064521;28;20358;-68
2023/01/10 00:47:14;;;;;;;1.30;1.20;;;16.60;59.50;;;;;;5064480;28;20031;-69
2023/01/10 00:49:40;;;;;;;1.63;1.35;;;16.60;59.40;;;;;;5064359;28;20231;-69
2023/01/10 00:52:06;;;;;;;1.40;1.30;;;16.60;59.40;;;;;;5064403;28;20079;-69
2023/01/10 00:54:32;;;;;;;1.65;1.55;;;16.70;59.30;;;;;;5064461;28;20067;-69
2023/01/10 00:56:58;;;;;;;1.38;1.27;;;16.60;59.20;;;;;;5064410;28;20080;-68
2023/01/10 00:59:24;;;;;;;2.22;1.10;;;16.60;59.20;;;;;;5064298;28;20135;-68
2023/01/10 01:01:51;;;;;;;2.53;1.42;;;16.60;59.20;;;;;;5064274;28;20067;-69
2023/01/10 01:04:16;;;;;;;1.85;1.38;;;16.60;59.20;;;;;;5064143;28;20028;-69
2023/01/10 01:06:43;;;;;;;1.60;1.20;;;16.60;59.20;;;;;;5064202;28;20025;-69
2023/01/10 01:09:09;;;;;;;2.15;1.10;;;16.60;59.20;;;;;;5064116;28;20088;-69
2023/01/10 01:11:35;;;;;;;2.03;1.63;;;16.60;59.10;;;;;;5064021;28;20378;-68
2023/01/10 01:14:00;;;;;;;1.55;1.42;;;16.60;59.10;;;;;;5064077;28;20135;-70
2023/01/10 01:16:26;;;;;;;3.72;1.30;;;16.60;59.20;;;;;;5064019;28;20029;-69
2023/01/10 01:18:52;;;;;;;2.53;1.25;;;16.60;59.20;;;;;;5062764;28;20028;-70
2023/01/10 01:21:19;;;;;;;1.85;1.30;;;16.60;59.20;;;;;;5063905;28;20396;-70
2023/01/10 01:23:45;;;;;;;2.75;1.27;;;16.50;59.20;;;;;;5063839;28;20024;-69
2023/01/10 01:26:11;;;;;;;1.33;1.20;;;16.60;59.30;;;;;;5063770;28;20024;-68
2023/01/10 01:28:37;;;;;;;1.58;1.40;;;16.50;59.10;;;;;;5063572;28;20370;-69
2023/01/10 01:31:09;;;;;;;1.48;1.25;;;16.60;59.80;;;;;;5063582;28;20036;-67
2023/01/10 01:33:35;;;;;;;1.35;1.10;;;16.50;59.10;;;;;;5063646;28;20464;-67
2023/01/10 01:36:01;;;;;;;1.55;1.30;;;16.60;59.20;;;;;;5063620;28;20072;-69
2023/01/10 01:38:27;;;;;;;2.65;1.20;;;16.50;59.20;;;;;;5063457;28;20017;-68
2023/01/10 01:40:53;;;;;;;1.23;1.05;;;16.50;59.40;;;;;;5063555;28;20255;-68
2023/01/10 01:43:25;;;;;;;1.30;1.20;;;16.50;59.50;;;;;;5062717;28;20316;-68
2023/01/10 01:45:52;;;;;;;1.63;1.23;;;16.50;59.60;;;;;;5063481;28;20194;-67
2023/01/10 01:48:17;;;;;;;1.65;1.20;;;16.50;59.50;;;;;;5062160;28;20056;-68
2023/01/10 01:50:54;;;;;;;1.25;1.15;;;16.50;59.50;;;;;;5063276;28;20034;-67
2023/01/10 01:53:28;;;;;;;1.25;1.15;;;16.60;59.50;;;;;;5063335;28;20029;-68
2023/01/10 01:55:59;;;;;;;1.30;1.20;;;16.60;59.40;;;;;;5063237;28;20009;-69
2023/01/10 01:58:36;;;;;;;1.50;1.25;;;16.60;59.40;;;;;;5063222;28;20351;-69
2023/01/10 02:01:02;;;;;;;1.25;0.98;;;16.60;59.50;;;;;;5063229;28;20025;-69
2023/01/10 02:03:29;;;;;;;1.83;1.38;;;16.60;59.50;;;;;;5063068;28;20024;-68
2023/01/10 02:05:55;;;;;;;1.25;1.10;;;16.60;59.40;;;;;;5063099;28;20443;-69
2023/01/10 02:08:21;;;;;;;1.48;1.33;;;16.60;59.40;;;;;;5063028;28;20346;-70
2023/01/10 02:11:17;;;;;;;1.50;1.25;;;16.60;59.50;;;;;;5062926;28;20045;-68
2023/01/10 02:13:46;;;;;;;1.48;1.30;;;16.60;59.40;;;;;;5062479;28;20094;-69
2023/01/10 02:16:13;;;;;;;1.60;1.20;;;16.60;59.30;;;;;;5061643;28;20182;-68
2023/01/10 02:18:41;;;;;;;3.05;1.23;;;16.60;59.30;;;;;;5062783;28;20029;-68
2023/01/10 02:21:13;;;;;;;1.80;1.35;;;16.60;59.30;;;;;;5062771;28;20036;-68
2023/01/10 02:23:48;;;;;;;1.58;1.20;;;16.60;59.20;;;;;;5062757;28;20083;-67
2023/01/10 02:26:44;;;;;;;1.42;1.10;;;16.60;59.20;;;;;;5062668;28;20051;-69
2023/01/10 02:29:22;;;;;;;1.42;1.10;;;16.60;59.10;;;;;;5062472;28;20068;-70
2023/01/10 02:31:56;;;;;;;1.47;1.20;;;16.60;59.10;;;;;;5062441;28;20084;-67
2023/01/10 02:34:47;;;;;;;1.20;1.10;;;16.60;59.10;;;;;;5062453;28;20283;-69
2023/01/10 02:37:27;;;;;;;1.90;1.20;;;16.50;59.10;;;;;;5062425;28;20024;-67
2023/01/10 02:40:25;;;;;;;1.30;1.15;;;16.50;59.10;;;;;;5062423;28;20028;-68
2023/01/10 02:43:33;;;;;;;1.90;1.45;;;16.50;59.10;;;;;;5053113;28;20036;-67
2023/01/10 02:46:04;;;;;;;1.42;1.20;;;16.50;59.60;;;;;;5061819;28;20146;-67
2023/01/10 02:48:30;;;;;;;0.93;0.90;;;16.50;59.00;;;;;;5062264;28;20040;-68
2023/01/10 02:51:02;;;;;;;1.30;1.20;;;16.50;59.00;;;;;;5062139;28;20044;-68
2023/01/10 02:53:45;;;;;;;0.80;0.80;;;16.50;59.10;;;;;;5061504;28;20088;-68
2023/01/10 02:56:47;;;;;;;1.05;0.93;;;16.50;59.30;;;;;;5061943;28;20036;-69
2023/01/10 02:59:51;;;;;;;2.45;1.35;;;16.50;59.40;;;;;;5061915;28;20012;-69
2023/01/10 03:02:25;;;;;;;0.88;0.70;;;16.60;59.50;;;;;;5061952;28;20025;-69
2023/01/10 03:05:16;;;;;;;0.80;0.80;;;16.50;59.40;;;;;;5061926;28;20033;-67
2023/01/10 03:08:14;;;;;;;1.08;0.98;;;16.60;59.40;;;;;;5061874;28;20025;-68
2023/01/10 03:10:47;;;;;;;1.30;1.20;;;16.60;59.30;;;;;;5053690;28;20060;-68
2023/01/10 03:13:26;;;;;;;1.48;1.05;;;16.60;59.40;;;;;;5061658;28;20028;-69
2023/01/10 03:15:53;;;;;;;1.38;1.15;;;16.60;59.40;;;;;;5061700;28;20024;-68
2023/01/10 03:18:24;;;;;;;2.05;1.33;;;16.60;59.40;;;;;;5061638;28;20027;-68
2023/01/10 03:20:51;;;;;;;1.42;1.33;;;16.60;59.50;;;;;;5061885;28;20224;-68
2023/01/10 03:23:19;;;;;;;1.70;1.13;;;16.60;59.50;;;;;;5061622;28;20025;-67
2023/01/10 03:25:49;;;;;;;1.25;1.15;;;16.60;59.50;;;;;;5061671;28;20028;-67
2023/01/10 03:28:43;;;;;;;1.35;1.00;;;16.50;60.00;;;;;;5061236;28;20065;-69
2023/01/10 03:31:28;;;;;;;1.10;1.00;;;16.60;59.40;;;;;;5061372;28;20360;-68
2023/01/10 03:33:54;;;;;;;0.95;0.95;;;16.60;59.30;;;;;;5061389;28;20088;-67
2023/01/10 03:36:31;;;;;;;2.03;1.35;;;16.60;59.30;;;;;;5059767;28;20019;-67
2023/01/10 03:39:14;;;;;;;1.45;1.00;;;16.60;59.80;;;;;;5061349;28;20106;-68
2023/01/10 03:41:51;;;;;;;1.30;1.00;;;16.60;59.10;;;;;;5060131;28;20096;-69
2023/01/10 03:44:50;;;;;;;1.20;1.10;;;16.60;59.10;;;;;;5061241;28;20082;-67
2023/01/10 03:47:22;;;;;;;0.90;0.90;;;16.60;59.10;;;;;;5061271;28;20032;-67
2023/01/10 03:49:53;;;;;;;1.85;1.15;;;16.60;59.10;;;;;;5061260;28;20033;-67
2023/01/10 03:52:20;;;;;;;1.15;1.02;;;16.50;59.00;;;;;;5061310;28;20031;-68
2023/01/10 03:54:46;;;;;;;0.95;0.95;;;16.50;59.10;;;;;;5061201;28;20051;-68
2023/01/10 03:57:23;;;;;;;2.13;1.20;;;16.50;59.00;;;;;;5061164;28;20013;-68
2023/01/10 03:59:58;;;;;;;1.40;1.20;;;16.50;59.00;;;;;;5061139;28;20025;-68
2023/01/10 04:02:30;;;;;;;1.80;1.13;;;16.50;59.10;;;;;;5061133;28;20088;-69
2023/01/10 04:04:57;;;;;;;1.27;1.10;;;16.50;59.10;;;;;;5060642;28;20031;-68
2023/01/10 04:07:24;;;;;;;1.20;1.10;;;16.50;59.10;;;;;;5060988;28;20212;-69
2023/01/10 04:09:50;;;;;;;1.73;0.90;;;16.50;59.20;;;;;;5061006;28;20021;-68
2023/01/10 04:12:16;;;;;;;1.20;1.02;;;16.50;59.40;;;;;;5061054;28;20025;-69
2023/01/10 04:14:45;;;;;;;1.08;0.95;;;16.50;59.40;;;;;;5061023;28;20104;-70
2023/01/10 04:17:12;;;;;;;1.00;0.90;;;16.50;59.40;;;;;;5060960;28;20380;-69
2023/01/10 04:19:38;;;;;;;1.52;0.93;;;16.50;59.40;;;;;;5060970;28;20029;-68
2023/01/10 04:22:07;;;;;;;1.10;1.00;;;16.60;59.50;;;;;;5060911;28;20032;-68
2023/01/10 04:24:32;;;;;;;1.02;0.93;;;16.50;60.00;;;;;;5060863;28;20021;-70
2023/01/10 04:26:58;;;;;;;0.98;0.88;;;16.50;59.30;;;;;;5060797;28;20039;-68
2023/01/10 04:29:24;;;;;;;0.85;0.85;;;16.50;59.40;;;;;;5060666;28;20052;-69
2023/01/10 04:31:50;;;;;;;0.90;0.82;;;16.50;59.30;;;;;;5060659;28;20055;-70
2023/01/10 04:34:19;;;;;;;1.52;0.90;;;16.50;59.30;;;;;;5060795;28;20336;-69
2023/01/10 04:36:45;;;;;;;0.85;0.85;;;16.50;59.30;;;;;;5060741;28;20028;-68
2023/01/10 04:39:11;;;;;;;1.45;1.00;;;16.50;59.20;;;;;;5060714;28;20029;-70
2023/01/10 04:41:37;;;;;;;1.52;1.00;;;16.50;59.20;;;;;;5060777;28;20329;-69
2023/01/10 04:44:04;;;;;;;1.08;1.00;;;16.50;59.20;;;;;;5060723;28;20071;-68
2023/01/10 04:46:31;;;;;;;1.23;1.13;;;16.50;59.10;;;;;;5060662;28;20332;-69
2023/01/10 04:48:57;;;;;;;1.02;0.93;;;16.50;59.10;;;;;;5060610;28;20033;-68
2023/01/10 04:51:24;;;;;;;1.33;1.10;;;16.50;59.10;;;;;;5060581;28;20017;-69
2023/01/10 04:53:50;;;;;;;1.10;1.00;;;16.50;59.10;;;;;;5060600;28;20090;-69
2023/01/10 04:56:19;;;;;;;0.70;0.60;;;16.50;58.90;;;;;;5060570;28;20387;-71
2023/01/10 04:58:45;;;;;;;1.88;1.30;;;16.50;58.90;;;;;;5060584;28;20073;-70
2023/01/10 05:01:14;;;;;;;1.25;1.02;;;16.50;58.90;;;;;;5060455;28;20021;-69
2023/01/10 05:03:40;;;;;;;0.98;0.98;;;16.50;59.00;;;;;;5060564;28;20035;-69
2023/01/10 05:06:06;;;;;;;0.80;0.80;;;16.50;58.90;;;;;;5060481;28;20017;-69
2023/01/10 05:08:33;;;;;;;1.27;1.17;;;16.50;58.90;;;;;;5060368;28;20040;-69
2023/01/10 05:10:58;;;;;;;0.90;0.90;;;16.50;59.00;;;;;;5060311;28;20040;-69
2023/01/10 05:13:25;;;;;;;1.08;0.88;;;16.50;59.00;;;;;;5060378;28;20031;-68
2023/01/10 05:15:57;;;;;;;1.48;1.05;;;16.50;59.00;;;;;;5060410;28;20328;-70
2023/01/10 05:18:23;;;;;;;0.98;0.85;;;16.50;59.10;;;;;;5062589;28;20036;-70
2023/01/10 05:20:49;;;;;;;0.80;0.80;;;16.50;59.10;;;;;;5063916;28;20311;-69
2023/01/10 05:23:15;;;;;;;1.40;1.00;;;16.50;59.00;;;;;;5063896;28;20032;-69
2023/01/10 05:25:41;;;;;;;0.77;0.77;;;16.50;59.00;;;;;;5063874;28;20024;-69
2023/01/10 05:28:07;;;;;;;0.88;0.85;;;16.50;59.00;;;;;;5063620;28;20053;-68
2023/01/10 05:30:33;;;;;;;0.98;0.88;;;16.50;58.90;;;;;;5063697;28;20328;-69
2023/01/10 05:32:59;;;;;;;1.63;1.05;;;16.50;58.90;;;;;;5062378;28;20033;-69
2023/01/10 05:35:25;;;;;;;1.05;0.95;;;16.50;59.00;;;;;;5063709;28;20025;-69
2023/01/10 05:37:51;;;;;;;1.10;0.93;;;16.50;59.30;;;;;;5063681;28;20085;-68
2023/01/10 05:40:17;;;;;;;0.80;0.80;;;16.40;59.20;;;;;;5063649;28;20025;-69
2023/01/10 05:42:43;;;;;;;1.17;0.90;;;16.40;59.30;;;;;;5063508;28;20275;-69
2023/01/10 05:45:09;;;;;;;0.80;0.80;;;16.50;59.40;;;;;;5063571;28;20033;-69
2023/01/10 05:47:35;;;;;;;0.82;0.82;;;16.50;59.40;;;;;;5063419;28;20054;-69
2023/01/10 05:50:01;;;;;;;1.10;1.00;;;16.50;59.40;;;;;;5063351;28;20029;-69
2023/01/10 05:52:26;;;;;;;1.08;0.90;;;16.50;59.40;;;;;;5063355;28;20029;-68
2023/01/10 05:54:52;;;;;;;0.80;0.80;;;16.50;59.40;;;;;;5063254;28;20197;-69
2023/01/10 05:57:18;;;;;;;0.85;0.85;;;16.50;59.40;;;;;;5063199;28;20100;-70
2023/01/10 05:59:44;;;;;;;1.00;0.90;;;16.50;59.40;;;;;;5063198;28;20025;-70
2023/01/10 06:02:10;;;;;;;0.98;0.82;;;16.50;59.30;;;;;;5063143;28;20041;-70
2023/01/10 06:04:36;;;;;;;1.33;0.85;;;16.50;59.30;;;;;;5063156;28;20062;-69
2023/01/10 06:07:02;;;;;;;2.63;1.10;;;16.50;59.30;;;;;;5062996;28;20066;-69
2023/01/10 06:09:27;;;;;;;0.82;0.68;;;16.50;59.30;;;;;;5062978;28;20032;-69
2023/01/10 06:11:53;;;;;;;1.20;1.00;;;16.50;59.20;;;;;;5062878;28;20029;-68
2023/01/10 06:14:19;;;;;;;1.27;0.90;;;16.50;59.20;;;;;;5063028;28;20216;-68
2023/01/10 06:16:46;;;;;;;0.70;0.70;;;16.50;59.10;;;;;;5062890;28;20017;-70
2023/01/10 06:19:12;;;;;;;0.88;0.80;;;16.50;59.70;;;;;;5062778;28;20021;-71
2023/01/10 06:21:37;;;;;;;1.13;0.85;;;16.50;59.10;;;;;;5062808;28;20028;-70
2023/01/10 06:24:03;;;;;;;1.10;1.00;;;16.50;59.00;;;;;;5062812;28;20029;-70
2023/01/10 06:26:29;;;;;;;0.85;0.82;;;16.50;58.90;;;;;;5062658;28;20063;-71
2023/01/10 06:28:57;;;;;;;1.40;1.10;;;16.50;58.80;;;;;;5062142;28;20098;-68
2023/01/10 06:31:22;;;;;;;0.73;0.73;;;16.50;58.90;;;;;;5062460;28;20074;-69
2023/01/10 06:33:52;;;;;;;0.95;0.90;;;16.50;58.90;;;;;;5061209;28;20024;-69
2023/01/10 06:36:17;;;;;;;1.20;1.10;;;16.50;58.80;;;;;;5062445;28;20077;-70
2023/01/10 06:38:43;;;;;;;1.17;1.08;;;16.50;58.80;;;;;;5062407;28;20025;-70
2023/01/10 06:41:12;;;;;;;0.82;0.82;;;16.50;58.90;;;;;;5062309;28;20084;-69
2023/01/10 06:43:48;;;;;;;1.27;1.00;;;16.50;58.80;;;;;;5062370;28;20232;-69
2023/01/10 06:46:18;;;;;;;1.45;1.20;;;16.50;58.90;;;;;;5062444;28;20033;-68
2023/01/10 06:48:44;;;;;;;0.85;0.85;;;16.40;58.90;;;;;;5062316;28;20029;-68
2023/01/10 06:51:12;;;;;;;1.45;1.10;;;16.40;59.10;;;;;;5062152;28;20029;-69
2023/01/10 06:53:38;;;;;;;0.88;0.75;;;16.40;59.20;;;;;;5062167;28;20025;-69
2023/01/10 06:56:04;;;;;;;1.05;0.95;;;16.50;59.30;;;;;;5062117;28;20025;-69
2023/01/10 06:58:31;;;;;;;1.58;1.02;;;16.50;59.40;;;;;;5062158;28;20272;-69
2023/01/10 07:00:57;;;;;;;1.45;0.90;;;16.50;59.50;;;;;;5062073;28;20031;-68
2023/01/10 07:03:23;;;;;;;0.52;0.52;;;16.50;59.40;;;;;;5061914;28;20269;-69
2023/01/10 07:05:49;;;;;;;0.90;0.80;;;16.50;59.40;;;;;;5061984;28;20096;-69
2023/01/10 07:08:15;;;;;;;1.15;0.82;;;16.50;59.30;;;;;;5061917;28;20096;-68
2023/01/10 07:10:43;;;;;;;1.30;1.20;;;16.50;59.40;;;;;;5061739;28;20221;-67
2023/01/10 07:13:08;;;;;;;0.90;0.80;;;16.50;59.40;;;;;;5061811;28;20025;-69
2023/01/10 07:15:35;;;;;;;1.45;0.73;;;16.50;59.30;;;;;;5061809;28;20017;-68
2023/01/10 07:18:01;;;;;;;0.80;0.80;;;16.50;59.40;;;;;;5060313;28;20032;-68
2023/01/10 07:20:27;;;;;;;2.25;0.95;;;16.50;59.30;;;;;;5061690;28;20492;-68
2023/01/10 07:22:54;;;;;;;1.10;1.00;;;16.50;59.30;;;;;;5061608;28;20040;-67
2023/01/10 07:25:21;;;;;;;1.20;1.00;;;16.50;59.20;;;;;;5061553;28;20012;-68
2023/01/10 07:27:46;;;;;;;0.60;0.60;;;16.50;59.10;;;;;;5061480;28;20094;-69
2023/01/10 07:30:12;;;;;;;1.17;0.80;;;16.50;59.10;;;;;;5061437;28;20021;-68
2023/01/10 07:32:38;;;;;;;0.80;0.80;;;16.50;59.00;;;;;;5061544;28;20332;-68
2023/01/10 07:35:04;;;;;;;0.88;0.80;;;16.50;59.00;;;;;;5061501;28;20017;-69
2023/01/10 07:37:30;;;;;;;1.17;0.80;;;16.50;58.90;;;;;;5061510;28;20083;-68
2023/01/10 07:39:56;;;;;;;0.75;0.75;;;16.50;58.80;;;;;;5060799;28;20028;-68
2023/01/10 07:42:22;;;;;;;0.80;0.70;;;16.50;58.80;;;;;;5061332;28;20347;-69
2023/01/10 07:44:47;;;;;;;0.63;0.63;;;16.50;58.80;;;;;;5061368;28;20049;-69
2023/01/10 07:47:13;;;;;;;0.85;0.82;;;16.50;58.80;;;;;;5061278;28;20067;-68
2023/01/10 07:49:39;;;;;;;1.25;1.00;;;16.50;58.80;;;;;;5061237;28;20029;-68
2023/01/10 07:52:07;;;;;;;0.60;0.55;;;16.50;58.80;;;;;;5061176;28;20252;-68
2023/01/10 07:54:34;;;;;;;1.08;0.82;;;16.50;58.80;;;;;;5061270;28;20070;-68
2023/01/10 07:57:00;;;;;;;1.00;0.90;;;16.50;58.90;;;;;;5061174;28;20092;-68
2023/01/10 07:59:26;;;;;;;2.05;0.70;;;16.40;58.80;;;;;;5061258;28;20086;-68
2023/01/10 08:01:53;;;;;;;1.00;0.90;;;16.40;58.80;;;;;;5061104;28;20033;-70
2023/01/10 08:04:19;;;;;;;0.68;0.68;;;16.40;58.90;;;;;;5061083;28;20029;-70
2023/01/10 08:06:45;;;;;;;0.73;0.65;;;16.40;59.00;;;;;;5061060;28;20028;-69
2023/01/10 08:09:11;;;;;;;0.73;0.73;;;16.40;59.10;;;;;;5059791;28;20028;-68
2023/01/10 08:11:37;;;;;;;1.27;0.70;;;16.40;59.10;;;;;;5060976;28;20035;-69
2023/01/10 08:14:02;;;;;;;0.63;0.55;;;16.40;59.30;;;;;;5061017;28;20056;-68
2023/01/10 08:16:28;;;;;;;2.15;1.00;;;16.40;59.20;;;;;;5061010;28;20262;-70
2023/01/10 08:18:54;;;;;;;0.95;0.85;;;16.50;59.30;;;;;;5060967;28;20029;-70
2023/01/10 08:21:20;;;;;;;23.35;2.45;;;16.50;59.30;;;;;;5060996;28;20032;-70
2023/01/10 08:23:46;;;;;;;25.58;2.30;;;16.20;57.80;;;;;;5060998;28;20036;-75
2023/01/10 08:26:11;;;;;;;8.43;1.05;;;16.30;59.00;;;;;;5061017;28;20029;-71
2023/01/10 08:28:37;;;;;;;5.72;1.40;;;16.30;59.20;;;;;;5060790;28;20056;-71
2023/01/10 08:31:07;;;;;;;4.15;1.02;;;16.40;59.30;;;;;;5060971;28;20320;-71
2023/01/10 08:33:35;;;;;;;3.67;1.00;;;16.50;59.30;;;;;;5060867;28;20024;-70
2023/01/10 08:36:01;;;;;;;2.40;1.00;;;16.50;59.00;;;;;;5059984;28;20020;-70
2023/01/10 08:38:27;;;;;;;3.70;1.20;;;16.50;58.90;;;;;;5057042;28;20017;-69
2023/01/10 08:40:57;;;;;;;15.20;3.35;;;16.60;59.00;;;;;;5053460;28;20033;-70
2023/01/10 08:43:23;;;;;;;6.63;1.60;;;16.60;59.10;;;;;;5052821;28;20104;-68
2023/01/10 08:45:49;;;;;;;5.75;1.58;;;16.70;59.20;;;;;;5040511;28;20075;-70
2023/01/10 08:48:14;;;;;;;4.45;1.15;;;16.70;59.20;;;;;;5049034;28;20028;-71
2023/01/10 08:50:40;;;;;;;7.78;1.40;;;16.70;59.20;;;;;;5060469;28;20084;-70
2023/01/10 08:53:06;;;;;;;5.55;1.40;;;16.70;59.10;;;;;;5063507;28;20021;-72
2023/01/10 08:55:34;;;;;;;9.65;1.40;;;16.70;59.70;;;;;;5064261;28;20029;-70
2023/01/10 08:58:00;;;;;;;4.78;1.50;;;16.80;59.50;;;;;;5064287;28;20013;-70
2023/01/10 09:00:27;;;;;;;6.65;1.60;;;16.80;59.60;;;;;;5063867;28;20021;-73
2023/01/10 09:02:53;;;;;;;7.53;1.60;;;16.80;59.50;;;;;;5063444;28;20013;-68
2023/01/10 09:05:18;;;;;;;18.23;2.10;;;16.80;59.70;;;;;;5063049;28;20236;-70
2023/01/10 09:07:45;;;;;;;11.02;1.80;;;16.80;59.70;;;;;;5064048;28;20024;-70
2023/01/10 09:10:11;;;;;;;10.25;1.42;;;16.80;59.70;;;;;;5063333;28;20037;-71
2023/01/10 09:12:55;;;;;;;13.55;1.52;;;16.90;59.90;;;;;;5063910;28;20241;-71
2023/01/10 09:15:50;;;;;;;8.88;1.40;;;16.80;59.80;;;;;;5063605;28;20475;-71
2023/01/10 09:18:16;;;;;;;9.00;1.50;;;16.90;59.90;;;;;;5060335;28;20032;-71
2023/01/10 09:20:42;;;;;;;8.35;1.40;;;16.90;59.90;;;;;;5063655;28;20024;-71
2023/01/10 09:23:16;;;;;;;10.90;1.45;;;16.90;60.00;;;;;;5063605;28;20021;-73
2023/01/10 09:25:42;;;;;;;7.10;1.30;;;16.90;60.10;;;;;;5063754;28;20023;-69
2023/01/10 09:28:08;;;;;;;13.25;1.60;;;16.90;60.20;;;;;;5062838;28;20044;-71
2023/01/10 09:30:34;;;;;;;6.57;1.27;;;17.00;60.30;;;;;;5078523;28;20029;-71
2023/01/10 09:33:00;;;;;;;12.68;1.45;;;17.00;60.40;;;;;;5062056;28;20100;-70
2023/01/10 09:35:28;;;;;;;13.18;2.05;;;17.00;60.40;;;;;;5063545;28;20021;-70
2023/01/10 09:38:00;;;;;;;7.07;1.40;;;17.00;60.60;;;;;;5063465;28;20264;-70
2023/01/10 09:40:51;;;;;;;14.27;1.73;;;17.00;60.40;;;;;;5063068;28;20024;-71
2023/01/10 09:43:41;;;;;;;9.43;1.92;;;17.00;60.50;;;;;;5062935;28;20035;-71
2023/01/10 09:46:12;;;;;;;2.03;0.68;;;17.00;60.30;;;;;;5063229;28;20029;-72
2023/01/10 09:49:02;;;;;;;2.78;0.90;;;15.00;55.00;;;;;;5063188;28;20029;-72
2023/01/10 09:51:39;;;;;;;6.95;1.25;;;15.60;59.60;;;;;;5061492;28;20032;-71
2023/01/10 09:54:27;;;;;;;8.40;1.80;;;16.00;61.40;;;;;;5063145;28;20040;-70
2023/01/10 09:56:54;;;;;;;3.40;1.08;;;16.40;61.00;;;;;;5063047;28;20268;-72
2023/01/10 09:59:23;;;;;;;7.72;1.65;;;16.50;60.60;;;;;;5061837;28;20251;-71
2023/01/10 10:01:58;;;;;;;4.80;1.45;;;16.70;60.50;;;;;;5062793;28;20344;-71
2023/01/10 10:04:33;;;;;;;4.90;1.42;;;16.70;60.40;;;;;;5062126;28;20083;-71
2023/01/10 10:06:59;;;;;;;4.00;1.30;;;16.80;60.30;;;;;;5062844;28;20209;-70
2023/01/10 10:09:29;;;;;;;5.68;1.10;;;16.80;60.30;;;;;;5062891;28;20029;-72
2023/01/10 10:12:05;;;;;;;3.80;1.27;;;16.90;60.30;;;;;;5062555;28;20036;-69
2023/01/10 10:15:01;;;;;;;4.40;1.40;;;16.90;60.20;;;;;;5061598;28;20753;-70
2023/01/10 10:17:42;;;;;;;4.60;1.15;;;17.00;60.30;;;;;;5062700;28;20021;-71
2023/01/10 10:20:13;;;;;;;11.55;1.70;;;16.90;60.10;;;;;;5062191;28;20219;-68
2023/01/10 10:22:45;;;;;;;6.40;1.42;;;17.00;60.20;;;;;;5062315;28;20088;-70
2023/01/10 10:25:36;;;;;;;8.98;1.35;;;17.00;60.20;;;;;;5062358;28;20091;-69
2023/01/10 10:28:15;;;;;;;6.43;1.17;;;17.00;60.20;;;;;;5062231;28;20049;-71
2023/01/10 10:30:55;;;;;;;6.93;1.92;;;17.00;60.80;;;;;;5062355;28;20023;-70
2023/01/10 10:33:51;;;;;;;9.77;1.55;;;17.00;60.20;;;;;;5062289;28;20009;-72
2023/01/10 10:36:24;;;;;;;9.00;1.75;;;17.00;60.00;;;;;;5062384;28;20021;-71
2023/01/10 10:38:52;;;;;;;15.10;1.63;;;17.00;60.10;;;;;;5062356;28;20009;-70
2023/01/10 10:41:24;;;;;;;6.82;2.40;;;17.00;60.00;;;;;;5062207;28;20048;-71
2023/01/10 10:43:53;;;;;;;6.05;1.73;;;17.00;60.00;;;;;;5060885;28;20036;-71
2023/01/10 10:46:18;;;;;;;;;;;17.00;60.00;;;;;;5062824;28;20309;-71
2023/01/10 10:48:56;;;;;;;17.65;2.95;;;17.00;60.00;;;;;;5060870;28;19909;-71
2023/01/10 10:51:25;;;;;;;15.57;2.20;;;16.80;59.50;;;;;;5061849;28;20056;-71
2023/01/10 10:53:50;;;;;;;19.77;2.10;;;16.80;60.40;;;;;;5067923;28;20096;-71
2023/01/10 10:56:21;;;;;;;15.35;2.03;;;16.90;60.60;;;;;;5049660;28;20016;-70
2023/01/10 10:58:52;;;;;;;10.98;2.60;;;16.90;60.40;;;;;;5060267;28;20027;-72
2023/01/10 11:01:19;;;;;;;7.40;1.60;;;17.00;60.30;;;;;;5044746;28;20029;-71
2023/01/10 11:03:51;;;;;;;6.28;1.98;;;17.00;60.30;;;;;;5041767;28;20033;-72
2023/01/10 11:06:19;;;;;;;11.48;2.67;;;17.00;60.40;;;;;;5041943;28;20021;-71
2023/01/10 11:08:46;;;;;;;30.10;3.05;;;17.00;60.40;;;;;;5041267;28;20349;-70
2023/01/10 11:11:29;;;;;;;18.08;2.70;;;17.00;61.00;;;;;;5044708;28;20087;-71
2023/01/10 11:14:00;;;;;;;10.60;2.97;;;17.00;60.70;;;;;;5061614;28;20350;-72
2023/01/10 11:16:32;;;;;;;7.82;2.45;;;17.00;60.90;;;;;;5058963;28;20324;-70
2023/01/10 11:19:16;;;;;;;11.52;2.15;;;17.00;61.10;;;;;;5061438;28;20084;-74
2023/01/10 11:21:53;;;;;;;13.23;2.65;;;17.10;60.90;;;;;;5060552;28;20047;-72
2023/01/10 11:24:32;;;;;;;10.98;2.17;;;17.10;60.90;;;;;;5061541;28;20084;-71
2023/01/10 11:27:01;;;;;;;9.88;2.15;;;17.10;60.90;;;;;;5061517;28;20281;-71
2023/01/10 11:29:42;;;;;;;12.55;2.38;;;17.10;60.80;;;;;;5060242;28;20063;-73
2023/01/10 11:32:14;;;;;;;13.32;2.28;;;17.20;60.80;;;;;;5060319;28;20029;-71
2023/01/10 11:34:46;;;;;;;14.32;2.70;;;17.10;60.80;;;;;;5058754;28;20013;-71
2023/01/10 11:37:41;;;;;;;14.60;2.58;;;17.10;60.80;;;;;;5061386;28;20047;-70
2023/01/10 11:40:13;;;;;;;15.27;2.55;;;17.10;60.80;;;;;;5056137;28;20032;-73
2023/01/10 11:42:39;;;;;;;13.80;2.17;;;17.10;60.90;;;;;;5061298;28;20028;-71
2023/01/10 11:45:17;;;;;;;5.25;1.60;;;17.10;61.00;;;;;;5059976;28;20386;-73
2023/01/10 11:47:59;;;;;;;16.70;2.20;;;17.20;61.20;;;;;;5061208;28;20243;-72
2023/01/10 11:50:28;;;;;;;8.20;1.83;;;17.10;60.90;;;;;;5061041;28;20031;-73
2023/01/10 11:52:54;;;;;;;15.20;2.28;;;17.10;61.20;;;;;;5060575;28;20070;-71
2023/01/10 11:55:23;;;;;;;5.35;1.98;;;17.10;61.00;;;;;;5044451;28;20085;-71
2023/01/10 11:58:07;;;;;;;9.00;1.35;;;17.10;61.10;;;;;;5041077;28;20034;-71
2023/01/10 12:00:47;;;;;;;15.10;2.10;;;17.10;61.00;;;;;;5040349;28;20025;-71
2023/01/10 12:03:28;;;;;;;12.25;3.50;;;17.10;61.00;;;;;;5040527;28;20036;-70
2023/01/10 12:06:01;;;;;;;11.38;2.42;;;17.10;61.10;;;;;;5040635;28;20053;-70
2023/01/10 12:08:35;;;;;;;15.07;3.10;;;17.10;61.00;;;;;;5040881;28;20051;-69
2023/01/10 12:11:22;;;;;;;14.35;2.88;;;17.20;61.10;;;;;;5039564;28;20301;-69
2023/01/10 12:13:51;;;;;;;10.77;2.10;;;17.20;61.10;;;;;;5036478;28;20198;-71
2023/01/10 12:16:22;;;;;;;12.15;2.08;;;17.20;61.10;;;;;;5040657;28;20442;-73
2023/01/10 12:18:50;;;;;;;4.55;2.40;;;17.20;61.10;;;;;;5059401;28;20033;-71
2023/01/10 12:21:40;;;;;;;16.20;2.83;;;17.20;61.30;;;;;;5060291;28;20040;-71
2023/01/10 12:24:30;;;;;;;9.10;1.75;;;17.20;61.30;;;;;;5060292;28;20045;-71
2023/01/10 12:26:56;;;;;;;10.25;1.77;;;17.20;61.30;;;;;;5061200;28;20029;-71
2023/01/10 12:29:31;;;;;;;9.00;2.05;;;17.20;61.30;;;;;;5064591;28;20112;-72
2023/01/10 12:31:59;;;;;;;10.02;1.50;;;17.20;61.30;;;;;;5064460;28;20323;-71
2023/01/10 12:34:54;;;;;;;7.22;1.70;;;17.30;61.50;;;;;;5064608;28;20056;-71
2023/01/10 12:37:29;;;;;;;12.20;1.80;;;17.30;61.40;;;;;;5054587;28;20033;-71
2023/01/10 12:40:01;;;;;;;12.32;1.90;;;17.20;61.20;;;;;;5064444;28;20028;-72
2023/01/10 12:45:43;;;;;;;14.93;2.67;;;17.20;61.20;;;;;;5048159;28;20229;-70
2023/01/10 12:48:42;;;;;;;12.23;2.45;;;17.20;61.30;;;;;;5044680;28;20026;-70
2023/01/10 12:51:18;;;;;;;14.20;3.13;;;17.20;61.30;;;;;;5043563;28;20264;-70
2023/01/10 12:54:00;;;;;;;10.05;3.15;;;17.20;61.20;;;;;;5043739;28;20076;-69
2023/01/10 12:56:28;;;;;;;11.02;2.40;;;17.20;61.30;;;;;;5044196;28;20033;-70
2023/01/10 12:58:58;;;;;;;10.75;2.03;;;17.20;61.40;;;;;;5044295;28;20044;-72
2023/01/10 13:01:31;;;;;;;8.77;3.05;;;17.20;61.40;;;;;;5043903;28;20100;-71
2023/01/10 13:04:12;;;;;;;9.15;2.20;;;17.20;61.40;;;;;;5044132;28;20025;-72
2023/01/10 13:06:41;;;;;;;15.52;2.92;;;17.20;61.30;;;;;;5043559;28;20024;-72
2023/01/10 13:09:17;;;;;;;9.13;2.53;;;17.20;61.40;;;;;;5044074;28;20017;-71
2023/01/10 13:12:00;;;;;;;9.80;2.33;;;17.20;61.50;;;;;;5047887;28;20025;-72